createdAt,value
2018-03-30T00:01:08.275Z,99.99
2018-03-30T00:02:08.078Z,99.99
2018-03-30T00:04:01.328Z,99.99
2018-03-30T00:05:01.253Z,99.99
2018-03-30T00:06:54.518Z,99.99
2018-03-30T00:07:54.427Z,99.99
2018-03-30T00:09:47.797Z,99.99
2018-03-30T00:10:47.613Z,99.99
2018-03-30T00:12:41.005Z,99.99
2018-03-30T00:13:40.795Z,99.99
2018-03-30T00:15:35.068Z,99.99
2018-03-30T00:16:34.976Z,99.99
2018-03-30T00:18:28.233Z,99.99
2018-03-30T00:19:28.156Z,99.99
2018-03-30T00:21:21.549Z,99.99
2018-03-30T00:22:21.341Z,99.99
2018-03-30T00:24:14.708Z,99.99
2018-03-30T00:25:14.530Z,99.99
2018-03-30T00:27:07.906Z,99.99
2018-03-30T00:28:07.705Z,99.99
2018-03-30T00:30:01.072Z,99.99
2018-03-30T00:31:00.886Z,99.99
2018-03-30T00:32:54.159Z,99.99
2018-03-30T00:33:54.069Z,99.99
2018-03-30T00:35:47.456Z,99.99
2018-03-30T00:36:47.250Z,99.99
2018-03-30T00:38:40.504Z,99.99
2018-03-30T00:39:40.436Z,99.99
2018-03-30T00:41:33.707Z,99.99
2018-03-30T00:42:33.613Z,99.99
2018-03-30T00:44:26.867Z,99.99
2018-03-30T00:45:26.795Z,99.99
2018-03-30T00:47:20.193Z,99.99
2018-03-30T00:48:19.980Z,99.99
2018-03-30T00:50:14.234Z,99.99
2018-03-30T00:51:14.161Z,99.99
2018-03-30T00:53:07.433Z,99.99
2018-03-30T00:54:07.341Z,99.99
2018-03-30T00:56:00.729Z,99.99
2018-03-30T00:57:00.526Z,99.99
2018-03-30T00:58:53.781Z,99.99
2018-03-30T00:59:53.706Z,99.99
2018-03-30T01:01:46.979Z,99.99
2018-03-30T01:02:46.887Z,99.99
2018-03-30T01:04:40.255Z,99.99
2018-03-30T01:05:40.068Z,99.99
2018-03-30T01:07:33.455Z,99.99
2018-03-30T01:08:33.241Z,99.99
2018-03-30T01:10:26.611Z,99.99
2018-03-30T01:11:26.421Z,99.99
2018-03-30T01:13:19.701Z,99.99
2018-03-30T01:14:19.605Z,99.99
2018-03-30T01:16:12.992Z,99.99
2018-03-30T01:17:12.785Z,99.99
2018-03-30T01:19:06.207Z,99.99
2018-03-30T01:20:05.966Z,99.99
2018-03-30T01:21:59.853Z,99.99
2018-03-30T01:22:59.148Z,99.99
2018-03-30T01:24:52.518Z,99.99
2018-03-30T01:25:52.333Z,99.99
2018-03-30T01:27:45.604Z,99.99
2018-03-30T01:28:45.512Z,99.99
2018-03-30T01:30:38.770Z,99.99
2018-03-30T01:31:38.693Z,99.99
2018-03-30T01:33:32.078Z,99.99
2018-03-30T01:34:31.876Z,99.99
2018-03-30T01:36:25.148Z,99.99
2018-03-30T01:37:25.056Z,99.99
2018-03-30T01:39:18.319Z,99.99
2018-03-30T01:40:18.240Z,99.99
2018-03-30T01:42:11.625Z,99.99
2018-03-30T01:43:11.420Z,99.99
2018-03-30T01:45:04.790Z,99.99
2018-03-30T01:46:04.599Z,99.99
2018-03-30T01:47:57.875Z,99.99
2018-03-30T01:48:57.783Z,99.99
2018-03-30T01:50:51.149Z,99.99
2018-03-30T01:51:50.965Z,99.99
2018-03-30T01:53:44.352Z,99.99
2018-03-30T01:54:44.146Z,99.99
2018-03-30T01:56:37.409Z,99.99
2018-03-30T01:57:37.318Z,99.99
2018-03-30T01:59:30.573Z,99.99
2018-03-30T02:00:30.500Z,99.99
2018-03-30T02:02:23.773Z,99.99
2018-03-30T02:03:23.685Z,99.99
2018-03-30T02:05:17.047Z,99.99
2018-03-30T02:06:16.863Z,99.99
2018-03-30T02:08:10.136Z,99.99
2018-03-30T02:09:10.045Z,99.99
2018-03-30T02:11:03.411Z,99.99
2018-03-30T02:12:03.232Z,99.99
2018-03-30T02:13:56.506Z,99.99
2018-03-30T02:14:56.414Z,99.99
2018-03-30T02:16:49.799Z,99.99
2018-03-30T02:17:49.593Z,99.99
2018-03-30T02:19:42.842Z,99.99
2018-03-30T02:20:42.768Z,99.99
2018-03-30T02:22:36.155Z,99.99
2018-03-30T02:23:35.950Z,99.99
2018-03-30T02:25:29.313Z,99.99
2018-03-30T02:26:29.130Z,99.99
2018-03-30T02:28:22.402Z,99.99
2018-03-30T02:29:22.311Z,99.99
2018-03-30T02:31:15.564Z,99.99
2018-03-30T02:32:15.490Z,99.99
2018-03-30T02:34:08.876Z,99.99
2018-03-30T02:35:08.671Z,99.99
2018-03-30T02:37:01.939Z,99.99
2018-03-30T02:38:01.845Z,99.99
2018-03-30T02:39:55.212Z,99.99
2018-03-30T02:40:55.029Z,99.99
2018-03-30T02:42:48.410Z,99.99
2018-03-30T02:43:48.210Z,99.99
2018-03-30T02:45:41.464Z,99.99
2018-03-30T02:46:41.389Z,99.99
2018-03-30T02:48:34.660Z,99.99
2018-03-30T02:49:34.571Z,99.99
2018-03-30T02:51:27.938Z,99.99
2018-03-30T02:52:27.752Z,99.99
2018-03-30T02:54:21.024Z,99.99
2018-03-30T02:55:20.932Z,99.99
2018-03-30T02:57:14.198Z,99.99
2018-03-30T02:58:14.107Z,99.99
2018-03-30T03:00:08.473Z,99.99
2018-03-30T03:01:08.288Z,99.99
2018-03-30T03:03:01.693Z,99.99
2018-03-30T03:04:01.470Z,99.99
2018-03-30T03:05:54.727Z,99.99
2018-03-30T03:06:54.655Z,99.99
2018-03-30T03:08:47.925Z,99.99
2018-03-30T03:09:47.833Z,99.99
2018-03-30T03:11:41.088Z,99.99
2018-03-30T03:12:41.016Z,99.99
2018-03-30T03:14:34.401Z,99.99
2018-03-30T03:15:34.198Z,99.99
2018-03-30T03:17:27.461Z,99.99
2018-03-30T03:18:27.370Z,99.99
2018-03-30T03:20:20.738Z,99.99
2018-03-30T03:21:20.553Z,99.99
2018-03-30T03:23:13.938Z,99.99
2018-03-30T03:24:13.733Z,99.99
2018-03-30T03:26:06.988Z,99.99
2018-03-30T03:27:06.916Z,99.99
2018-03-30T03:29:00.193Z,99.99
2018-03-30T03:30:00.099Z,99.99
2018-03-30T03:31:53.468Z,99.99
2018-03-30T03:32:53.282Z,99.99
2018-03-30T03:34:46.554Z,99.99
2018-03-30T03:35:46.461Z,99.99
2018-03-30T03:37:39.735Z,99.99
2018-03-30T03:38:39.644Z,99.99
2018-03-30T03:40:33.014Z,99.99
2018-03-30T03:41:32.824Z,99.99
2018-03-30T03:43:26.211Z,99.99
2018-03-30T03:44:26.013Z,99.99
2018-03-30T03:46:19.380Z,99.99
2018-03-30T03:47:19.234Z,99.99
2018-03-30T03:49:12.508Z,99.99
2018-03-30T03:50:12.417Z,99.99
2018-03-30T03:52:05.670Z,99.99
2018-03-30T03:53:05.602Z,99.99
2018-03-30T03:54:58.985Z,99.99
2018-03-30T03:55:58.783Z,99.99
2018-03-30T03:57:52.165Z,99.99
2018-03-30T03:58:51.961Z,99.99
2018-03-30T04:00:45.829Z,99.99
2018-03-30T04:01:45.238Z,99.99
2018-03-30T04:03:38.507Z,99.99
2018-03-30T04:04:38.415Z,99.99
2018-03-30T04:06:31.672Z,99.99
2018-03-30T04:07:31.597Z,99.99
2018-03-30T04:09:25.983Z,99.99
2018-03-30T04:10:25.779Z,99.99
2018-03-30T04:12:20.033Z,99.99
2018-03-30T04:13:19.960Z,99.99
2018-03-30T04:15:13.348Z,99.99
2018-03-30T04:16:13.143Z,99.99
2018-03-30T04:18:06.529Z,99.99
2018-03-30T04:19:06.324Z,99.99
2018-03-30T04:20:59.691Z,99.99
2018-03-30T04:21:59.503Z,99.99
2018-03-30T04:23:52.892Z,99.99
2018-03-30T04:24:52.685Z,99.99
2018-03-30T04:26:46.058Z,99.99
2018-03-30T04:27:45.860Z,99.99
2018-03-30T04:29:39.135Z,99.99
2018-03-30T04:30:39.041Z,99.99
2018-03-30T04:32:32.314Z,99.99
2018-03-30T04:33:32.224Z,99.99
2018-03-30T04:35:25.498Z,99.99
2018-03-30T04:36:25.406Z,99.99
2018-03-30T04:38:18.680Z,99.99
2018-03-30T04:39:18.588Z,99.99
2018-03-30T04:41:11.843Z,99.99
2018-03-30T04:42:11.771Z,99.99
2018-03-30T04:44:05.155Z,99.99
2018-03-30T04:45:04.944Z,99.99
2018-03-30T04:46:58.197Z,99.99
2018-03-30T04:47:58.124Z,99.99
2018-03-30T04:49:51.510Z,99.99
2018-03-30T04:50:51.306Z,99.99
2018-03-30T04:52:44.581Z,99.99
2018-03-30T04:53:44.486Z,99.99
2018-03-30T04:55:37.761Z,99.99
2018-03-30T04:56:37.670Z,99.99
2018-03-30T04:58:31.055Z,99.99
2018-03-30T04:59:30.850Z,99.99
2018-03-30T05:01:24.217Z,99.99
2018-03-30T05:02:24.035Z,99.99
2018-03-30T05:04:17.420Z,99.99
2018-03-30T05:05:17.233Z,99.99
2018-03-30T05:07:10.477Z,99.99
2018-03-30T05:08:10.404Z,99.99
2018-03-30T05:10:03.798Z,99.99
2018-03-30T05:11:03.587Z,99.99
2018-03-30T05:12:56.880Z,99.99
2018-03-30T05:13:56.768Z,99.99
2018-03-30T05:15:50.023Z,99.99
2018-03-30T05:16:49.948Z,99.99
2018-03-30T05:18:43.335Z,99.99
2018-03-30T05:19:43.132Z,99.99
2018-03-30T05:21:36.498Z,99.99
2018-03-30T05:22:36.314Z,99.99
2018-03-30T05:24:29.586Z,99.99
2018-03-30T05:25:29.496Z,99.99
2018-03-30T05:27:22.742Z,99.99
2018-03-30T05:28:22.667Z,99.99
2018-03-30T05:30:15.946Z,99.99
2018-03-30T05:31:15.849Z,99.99
2018-03-30T05:33:09.741Z,99.99
2018-03-30T05:34:09.030Z,99.99
2018-03-30T05:36:02.398Z,99.99
2018-03-30T05:37:02.214Z,99.99
2018-03-30T05:38:55.488Z,99.99
2018-03-30T05:39:55.398Z,99.99
2018-03-30T05:41:48.655Z,99.99
2018-03-30T05:42:48.580Z,99.99
2018-03-30T05:44:41.966Z,99.99
2018-03-30T05:45:41.754Z,99.99
2018-03-30T05:47:35.005Z,99.99
2018-03-30T05:48:34.932Z,99.99
2018-03-30T05:50:28.204Z,99.99
2018-03-30T05:51:28.115Z,99.99
2018-03-30T05:53:21.400Z,99.99
2018-03-30T05:54:21.293Z,99.99
2018-03-30T05:56:15.545Z,99.99
2018-03-30T05:57:15.476Z,99.99
2018-03-30T05:59:08.861Z,99.99
2018-03-30T06:00:08.659Z,99.99
2018-03-30T06:02:02.028Z,99.99
2018-03-30T06:03:01.845Z,99.99
2018-03-30T06:04:55.231Z,99.99
2018-03-30T06:05:55.022Z,99.99
2018-03-30T06:07:48.282Z,99.99
2018-03-30T06:08:48.208Z,99.99
2018-03-30T06:10:41.485Z,99.99
2018-03-30T06:11:41.398Z,99.99
2018-03-30T06:13:34.782Z,99.99
2018-03-30T06:14:34.582Z,99.99
2018-03-30T06:16:27.842Z,99.99
2018-03-30T06:17:27.769Z,99.99
2018-03-30T06:19:21.163Z,99.99
2018-03-30T06:20:20.947Z,99.99
2018-03-30T06:22:14.207Z,99.87
2018-03-30T06:23:14.135Z,99.58
2018-03-30T06:25:07.414Z,99.68
2018-03-30T06:26:07.324Z,99.96
2018-03-30T06:28:00.693Z,99.87
2018-03-30T06:29:00.516Z,99.20
2018-03-30T06:30:53.793Z,98.54
2018-03-30T06:31:53.699Z,98.25
2018-03-30T06:33:47.087Z,98.54
2018-03-30T06:34:46.881Z,98.54
2018-03-30T06:36:40.247Z,98.54
2018-03-30T06:37:40.060Z,98.25
2018-03-30T06:39:33.329Z,98.16
2018-03-30T06:40:33.239Z,98.25
2018-03-30T06:42:26.610Z,98.82
2018-03-30T06:43:26.431Z,98.35
2018-03-30T06:45:19.821Z,98.54
2018-03-30T06:46:19.620Z,98.25
2018-03-30T06:48:12.880Z,99.20
2018-03-30T06:49:12.812Z,98.82
2018-03-30T06:51:06.086Z,98.35
2018-03-30T06:52:05.999Z,97.78
2018-03-30T06:53:59.389Z,97.74
2018-03-30T06:54:59.239Z,97.64
2018-03-30T06:56:52.491Z,97.45
2018-03-30T06:57:52.420Z,96.97
2018-03-30T06:59:45.701Z,97.50
2018-03-30T07:00:45.612Z,98.54
2018-03-30T07:02:38.983Z,99.30
2018-03-30T07:03:38.799Z,99.77
2018-03-30T07:05:32.189Z,99.68
2018-03-30T07:06:31.990Z,99.20
2018-03-30T07:08:25.360Z,99.30
2018-03-30T07:09:25.246Z,99.39
2018-03-30T07:11:18.625Z,98.25
2018-03-30T07:12:18.428Z,98.25
2018-03-30T07:14:11.705Z,97.55
2018-03-30T07:15:11.620Z,97.17
2018-03-30T07:17:04.871Z,96.41
2018-03-30T07:18:04.799Z,96.88
2018-03-30T07:19:58.186Z,96.50
2018-03-30T07:20:57.991Z,95.46
2018-03-30T07:22:51.307Z,96.03
2018-03-30T07:23:51.237Z,95.74
2018-03-30T07:25:44.501Z,96.22
2018-03-30T07:26:44.413Z,95.84
2018-03-30T07:28:37.794Z,96.22
2018-03-30T07:29:37.605Z,96.12
2018-03-30T07:31:30.992Z,96.22
2018-03-30T07:32:30.793Z,95.84
2018-03-30T07:34:24.183Z,94.74
2018-03-30T07:35:23.986Z,95.41
2018-03-30T07:37:17.312Z,94.74
2018-03-30T07:38:17.239Z,94.46
2018-03-30T07:40:10.508Z,93.60
2018-03-30T07:41:10.421Z,92.85
2018-03-30T07:43:03.791Z,91.80
2018-03-30T07:44:03.610Z,91.89
2018-03-30T07:45:57.005Z,90.99
2018-03-30T07:46:56.803Z,91.09
2018-03-30T07:48:50.177Z,91.75
2018-03-30T07:49:49.996Z,90.99
2018-03-30T07:51:43.393Z,90.80
2018-03-30T07:52:43.239Z,89.86
2018-03-30T07:54:36.516Z,89.09
2018-03-30T07:55:36.437Z,89.00
2018-03-30T07:57:29.805Z,88.85
2018-03-30T07:58:29.622Z,88.62
2018-03-30T08:00:23.011Z,88.53
2018-03-30T08:01:22.812Z,88.47
2018-03-30T08:03:16.186Z,87.14
2018-03-30T08:04:16.008Z,85.86
2018-03-30T08:06:09.399Z,83.76
2018-03-30T08:07:09.240Z,84.24
2018-03-30T08:09:02.638Z,82.48
2018-03-30T08:10:02.439Z,82.28
2018-03-30T08:11:55.829Z,82.57
2018-03-30T08:12:55.631Z,83.29
2018-03-30T08:14:48.915Z,84.81
2018-03-30T08:15:48.871Z,84.86
2018-03-30T08:17:42.093Z,85.34
2018-03-30T08:18:42.025Z,86.38
2018-03-30T08:20:35.356Z,86.57
2018-03-30T08:21:35.238Z,86.67
2018-03-30T08:23:28.512Z,86.67
2018-03-30T08:24:28.434Z,86.76
2018-03-30T08:26:21.717Z,86.67
2018-03-30T08:27:21.628Z,87.81
2018-03-30T08:29:14.892Z,88.09
2018-03-30T08:30:14.820Z,89.04
2018-03-30T08:32:08.211Z,89.04
2018-03-30T08:33:08.008Z,88.57
2018-03-30T08:35:01.396Z,88.95
2018-03-30T08:36:01.241Z,88.76
2018-03-30T08:37:54.503Z,88.76
2018-03-30T08:38:54.431Z,88.57
2018-03-30T08:40:47.698Z,87.76
2018-03-30T08:41:47.662Z,87.19
2018-03-30T08:43:40.986Z,87.28
2018-03-30T08:44:40.795Z,87.09
2018-03-30T08:46:34.186Z,87.28
2018-03-30T08:47:33.979Z,86.52
2018-03-30T08:49:27.311Z,86.71
2018-03-30T08:50:27.242Z,85.99
2018-03-30T08:52:20.514Z,85.99
2018-03-30T08:53:20.426Z,85.90
2018-03-30T08:55:13.817Z,84.47
2018-03-30T08:56:13.618Z,84.28
2018-03-30T08:58:06.871Z,84.85
2018-03-30T08:59:06.804Z,85.33
2018-03-30T09:01:00.076Z,85.33
2018-03-30T09:01:59.990Z,85.80
2018-03-30T09:03:53.309Z,85.52
2018-03-30T09:04:53.242Z,85.61
2018-03-30T09:06:46.631Z,85.52
2018-03-30T09:07:46.446Z,85.90
2018-03-30T09:09:39.308Z,85.90
2018-03-30T09:10:39.141Z,85.42
2018-03-30T09:12:32.419Z,84.95
2018-03-30T09:13:32.383Z,84.42
2018-03-30T09:15:25.603Z,84.47
2018-03-30T09:16:25.516Z,84.42
2018-03-30T09:18:18.773Z,84.89
2018-03-30T09:19:18.705Z,83.47
2018-03-30T09:21:12.098Z,81.26
2018-03-30T09:22:11.894Z,79.64
2018-03-30T09:24:05.159Z,78.25
2018-03-30T09:25:05.087Z,77.78
2018-03-30T09:26:58.358Z,74.77
2018-03-30T09:27:58.272Z,73.52
2018-03-30T09:29:51.646Z,73.43
2018-03-30T09:30:51.475Z,74.44
2018-03-30T09:32:44.759Z,75.01
2018-03-30T09:33:44.674Z,76.44
2018-03-30T09:35:38.069Z,77.59
2018-03-30T09:36:37.868Z,77.30
2018-03-30T09:38:31.128Z,77.20
2018-03-30T09:39:31.062Z,77.20
2018-03-30T09:41:24.457Z,77.78
2018-03-30T09:42:24.256Z,77.20
2018-03-30T09:44:17.512Z,76.20
2018-03-30T09:45:17.451Z,75.72
2018-03-30T09:47:10.843Z,74.38
2018-03-30T09:48:10.644Z,73.81
2018-03-30T09:50:03.903Z,71.56
2018-03-30T09:51:03.837Z,71.08
2018-03-30T09:52:57.117Z,71.04
2018-03-30T09:53:57.035Z,70.61
2018-03-30T09:55:50.428Z,66.19
2018-03-30T09:56:50.235Z,64.50
2018-03-30T09:58:43.606Z,61.25
2018-03-30T09:59:43.425Z,61.76
2018-03-30T10:01:36.709Z,62.59
2018-03-30T10:02:36.624Z,62.30
2018-03-30T10:04:30.003Z,63.13
2018-03-30T10:05:29.822Z,63.26
2018-03-30T10:07:23.102Z,62.01
2018-03-30T10:08:23.021Z,61.28
2018-03-30T10:10:16.400Z,59.72
2018-03-30T10:11:16.231Z,57.90
2018-03-30T10:13:09.627Z,56.37
2018-03-30T10:14:09.440Z,55.44
2018-03-30T10:16:02.840Z,54.64
2018-03-30T10:17:02.645Z,54.19
2018-03-30T10:18:56.025Z,53.62
2018-03-30T10:19:55.858Z,52.83
2018-03-30T10:21:49.150Z,53.78
2018-03-30T10:22:49.068Z,53.71
2018-03-30T10:24:42.343Z,52.59
2018-03-30T10:25:42.281Z,51.99
2018-03-30T10:27:35.681Z,53.56
2018-03-30T10:28:35.487Z,54.71
2018-03-30T10:30:28.865Z,53.88
2018-03-30T10:31:28.696Z,52.78
2018-03-30T10:33:21.992Z,49.98
2018-03-30T10:34:21.910Z,51.03
2018-03-30T10:36:15.308Z,50.52
2018-03-30T10:37:15.122Z,51.65
2018-03-30T10:39:08.505Z,53.73
2018-03-30T10:40:08.335Z,52.89
2018-03-30T10:42:01.734Z,52.89
2018-03-30T10:43:01.551Z,52.83
2018-03-30T10:44:54.933Z,49.62
2018-03-30T10:45:54.765Z,47.89
2018-03-30T10:47:48.083Z,47.97
2018-03-30T10:48:48.039Z,48.80
2018-03-30T10:50:41.316Z,48.80
2018-03-30T10:51:41.257Z,49.26
2018-03-30T10:53:34.653Z,50.05
2018-03-30T10:54:34.469Z,50.15
2018-03-30T10:56:27.767Z,49.09
2018-03-30T10:57:27.688Z,49.35
2018-03-30T10:59:20.964Z,49.19
2018-03-30T11:00:20.903Z,49.57
2018-03-30T11:02:14.302Z,49.57
2018-03-30T11:03:14.120Z,48.30
2018-03-30T11:05:07.519Z,48.68
2018-03-30T11:06:07.338Z,48.78
2018-03-30T11:08:00.636Z,48.68
2018-03-30T11:09:00.553Z,48.21
2018-03-30T11:10:53.834Z,48.78
2018-03-30T11:11:53.772Z,48.47
2018-03-30T11:13:47.065Z,49.49
2018-03-30T11:14:46.985Z,49.98
2018-03-30T11:16:40.270Z,49.98
2018-03-30T11:17:40.190Z,49.98
2018-03-30T11:19:33.570Z,50.62
2018-03-30T11:20:33.402Z,51.19
2018-03-30T11:22:26.694Z,51.76
2018-03-30T11:23:26.615Z,51.09
2018-03-30T11:25:19.890Z,51.12
2018-03-30T11:26:19.826Z,50.52
2018-03-30T11:28:13.222Z,51.89
2018-03-30T11:29:13.033Z,51.70
2018-03-30T11:31:06.416Z,50.07
2018-03-30T11:32:06.243Z,49.02
2018-03-30T11:33:59.541Z,48.73
2018-03-30T11:34:59.453Z,48.54
2018-03-30T11:36:52.728Z,48.16
2018-03-30T11:37:52.667Z,48.54
2018-03-30T11:39:46.565Z,48.25
2018-03-30T11:40:45.876Z,47.87
2018-03-30T11:42:39.149Z,48.07
2018-03-30T11:43:39.085Z,47.68
2018-03-30T11:45:32.483Z,46.44
2018-03-30T11:46:32.294Z,46.92
2018-03-30T11:48:25.572Z,47.68
2018-03-30T11:49:25.526Z,47.80
2018-03-30T11:51:18.901Z,45.10
2018-03-30T11:52:18.711Z,44.81
2018-03-30T11:54:12.004Z,44.05
2018-03-30T11:55:11.920Z,44.43
2018-03-30T11:57:05.181Z,46.72
2018-03-30T11:58:05.120Z,46.37
2018-03-30T11:59:58.521Z,46.25
2018-03-30T12:00:58.331Z,47.20
2018-03-30T12:02:51.709Z,47.01
2018-03-30T12:03:51.539Z,47.27
2018-03-30T12:05:44.830Z,46.51
2018-03-30T12:06:44.749Z,46.82
2018-03-30T12:08:38.147Z,46.61
2018-03-30T12:09:37.965Z,46.70
2018-03-30T12:11:31.312Z,47.68
2018-03-30T12:12:31.249Z,47.58
2018-03-30T12:14:24.644Z,48.52
2018-03-30T12:15:24.455Z,48.83
2018-03-30T12:17:17.738Z,48.57
2018-03-30T12:18:17.654Z,48.35
2018-03-30T12:20:10.928Z,49.30
2018-03-30T12:21:10.863Z,48.83
2018-03-30T12:23:04.261Z,49.21
2018-03-30T12:24:04.071Z,49.21
2018-03-30T12:25:57.452Z,48.73
2018-03-30T12:26:57.281Z,48.25
2018-03-30T12:28:50.675Z,48.25
2018-03-30T12:29:50.489Z,47.97
2018-03-30T12:31:43.763Z,48.54
2018-03-30T12:32:43.698Z,48.66
2018-03-30T12:34:36.988Z,48.28
2018-03-30T12:35:36.906Z,48.54
2018-03-30T12:37:30.191Z,49.49
2018-03-30T12:38:30.108Z,49.69
2018-03-30T12:40:23.486Z,49.95
2018-03-30T12:41:23.315Z,49.98
2018-03-30T12:43:16.716Z,51.12
2018-03-30T12:44:16.534Z,50.64
2018-03-30T12:46:09.910Z,51.70
2018-03-30T12:47:09.740Z,50.84
2018-03-30T12:49:03.039Z,50.93
2018-03-30T12:50:02.956Z,49.11
2018-03-30T12:51:56.334Z,48.44
2018-03-30T12:52:56.170Z,48.04
2018-03-30T12:54:49.559Z,48.90
2018-03-30T12:55:49.370Z,49.21
2018-03-30T12:57:42.661Z,48.25
2018-03-30T12:58:42.578Z,47.68
2018-03-30T13:00:35.956Z,46.53
2018-03-30T13:01:35.784Z,45.87
2018-03-30T13:03:29.181Z,46.72
2018-03-30T13:04:28.995Z,46.63
2018-03-30T13:06:22.369Z,46.82
2018-03-30T13:07:22.199Z,46.53
2018-03-30T13:09:15.491Z,46.82
2018-03-30T13:10:15.407Z,47.01
2018-03-30T13:12:08.784Z,48.61
2018-03-30T13:13:08.615Z,49.21
2018-03-30T13:15:02.011Z,50.16
2018-03-30T13:16:01.820Z,49.78
2018-03-30T13:17:55.109Z,50.90
2018-03-30T13:18:55.027Z,51.21
2018-03-30T13:20:48.299Z,50.84
2018-03-30T13:21:48.234Z,50.74
2018-03-30T13:23:41.535Z,50.84
2018-03-30T13:24:41.457Z,50.64
2018-03-30T13:26:34.730Z,50.09
2018-03-30T13:27:34.638Z,49.43
2018-03-30T13:29:28.035Z,49.14
2018-03-30T13:30:27.846Z,49.14
2018-03-30T13:32:21.226Z,48.66
2018-03-30T13:33:21.055Z,48.85
2018-03-30T13:35:14.347Z,49.04
2018-03-30T13:36:14.270Z,48.66
2018-03-30T13:38:07.549Z,49.43
2018-03-30T13:39:07.475Z,49.14
2018-03-30T13:41:00.749Z,48.64
2018-03-30T13:42:00.685Z,48.73
2018-03-30T13:43:54.086Z,49.21
2018-03-30T13:44:53.906Z,49.11
2018-03-30T13:46:47.194Z,49.30
2018-03-30T13:47:47.125Z,49.59
2018-03-30T13:49:40.523Z,49.59
2018-03-30T13:50:40.335Z,48.83
2018-03-30T13:52:33.612Z,49.21
2018-03-30T13:53:33.543Z,49.40
2018-03-30T13:55:26.942Z,49.88
2018-03-30T13:56:26.752Z,49.69
2018-03-30T13:58:20.041Z,50.07
2018-03-30T13:59:19.959Z,50.26
2018-03-30T14:01:13.313Z,49.98
2018-03-30T14:02:13.250Z,49.59
2018-03-30T14:04:06.540Z,48.83
2018-03-30T14:05:06.454Z,49.30
2018-03-30T14:06:59.836Z,49.30
2018-03-30T14:07:59.662Z,48.83
2018-03-30T14:09:53.056Z,49.21
2018-03-30T14:10:52.865Z,49.62
2018-03-30T14:12:46.244Z,49.21
2018-03-30T14:13:46.074Z,48.95
2018-03-30T14:15:39.365Z,49.04
2018-03-30T14:16:39.279Z,48.57
2018-03-30T14:18:32.681Z,48.95
2018-03-30T14:19:32.493Z,48.66
2018-03-30T14:21:25.765Z,48.47
2018-03-30T14:22:25.704Z,48.18
2018-03-30T14:24:19.025Z,48.54
2018-03-30T14:25:18.940Z,48.64
2018-03-30T14:27:12.207Z,48.57
2018-03-30T14:28:12.145Z,48.57
2018-03-30T14:30:05.540Z,48.93
2018-03-30T14:31:05.351Z,49.14
2018-03-30T14:32:58.626Z,48.83
2018-03-30T14:33:58.559Z,49.21
2018-03-30T14:35:51.955Z,49.04
2018-03-30T14:36:51.769Z,48.95
2018-03-30T14:38:45.164Z,48.38
2018-03-30T14:39:44.977Z,48.64
2018-03-30T14:41:38.249Z,49.88
2018-03-30T14:42:38.185Z,49.88
2018-03-30T14:44:31.477Z,49.49
2018-03-30T14:45:31.395Z,49.40
2018-03-30T14:47:24.775Z,49.21
2018-03-30T14:48:24.595Z,49.59
2018-03-30T14:50:17.887Z,49.30
2018-03-30T14:51:17.804Z,49.78
2018-03-30T14:53:11.182Z,49.69
2018-03-30T14:54:11.011Z,49.78
2018-03-30T14:56:04.301Z,50.84
2018-03-30T14:57:04.220Z,50.07
2018-03-30T14:58:57.510Z,49.69
2018-03-30T14:59:57.428Z,49.98
2018-03-30T15:01:50.805Z,49.78
2018-03-30T15:02:50.637Z,50.07
2018-03-30T15:04:44.032Z,50.64
2018-03-30T15:05:43.842Z,50.35
2018-03-30T15:07:37.112Z,51.12
2018-03-30T15:08:37.049Z,51.50
2018-03-30T15:10:30.449Z,51.60
2018-03-30T15:11:30.257Z,51.79
2018-03-30T15:13:23.582Z,52.08
2018-03-30T15:14:23.465Z,51.79
2018-03-30T15:16:16.860Z,51.89
2018-03-30T15:17:16.672Z,51.98
2018-03-30T15:19:10.068Z,52.46
2018-03-30T15:20:09.880Z,51.70
2018-03-30T15:22:03.149Z,52.36
2018-03-30T15:23:03.087Z,52.15
2018-03-30T15:24:56.482Z,52.46
2018-03-30T15:25:56.292Z,52.36
2018-03-30T15:27:49.566Z,52.72
2018-03-30T15:28:49.500Z,52.91
2018-03-30T15:30:42.792Z,52.36
2018-03-30T15:31:42.707Z,52.55
2018-03-30T15:33:36.083Z,52.34
2018-03-30T15:34:35.914Z,52.53
2018-03-30T15:36:29.310Z,52.62
2018-03-30T15:37:29.122Z,52.72
2018-03-30T15:39:22.411Z,52.53
2018-03-30T15:40:22.328Z,52.43
2018-03-30T15:42:15.600Z,52.62
2018-03-30T15:43:15.534Z,52.81
2018-03-30T15:45:08.854Z,53.29
2018-03-30T15:46:08.774Z,52.91
2018-03-30T15:48:02.041Z,53.49
2018-03-30T15:49:01.980Z,53.10
2018-03-30T15:50:55.385Z,52.34
2018-03-30T15:51:55.245Z,52.62
2018-03-30T15:53:48.628Z,52.53
2018-03-30T15:54:48.457Z,52.72
2018-03-30T15:56:41.751Z,52.62
2018-03-30T15:57:41.665Z,52.34
2018-03-30T15:59:35.061Z,52.43
2018-03-30T16:00:34.870Z,52.72
2018-03-30T16:02:28.248Z,52.24
2018-03-30T16:03:28.075Z,52.62
2018-03-30T16:05:21.369Z,52.81
2018-03-30T16:06:21.281Z,52.62
2018-03-30T16:08:14.678Z,53.58
2018-03-30T16:09:14.485Z,53.10
2018-03-30T16:11:07.864Z,53.00
2018-03-30T16:12:07.692Z,53.20
2018-03-30T16:14:00.981Z,53.10
2018-03-30T16:15:00.895Z,53.29
2018-03-30T16:16:54.294Z,53.10
2018-03-30T16:17:54.093Z,53.39
2018-03-30T16:19:48.498Z,53.10
2018-03-30T16:20:48.148Z,53.39
2018-03-30T16:22:42.524Z,53.00
2018-03-30T16:23:42.352Z,52.91
2018-03-30T16:25:35.747Z,53.08
2018-03-30T16:26:35.556Z,53.00
2018-03-30T16:28:28.941Z,53.36
2018-03-30T16:29:28.795Z,52.72
2018-03-30T16:31:22.157Z,53.45
2018-03-30T16:32:21.966Z,53.27
2018-03-30T16:34:15.312Z,52.88
2018-03-30T16:35:15.246Z,53.17
2018-03-30T16:37:08.641Z,53.08
2018-03-30T16:38:08.451Z,53.08
2018-03-30T16:40:01.745Z,53.08
2018-03-30T16:41:01.655Z,53.17
2018-03-30T16:42:55.034Z,53.74
2018-03-30T16:43:54.877Z,53.93
2018-03-30T16:45:48.146Z,53.93
2018-03-30T16:46:48.064Z,53.84
2018-03-30T16:48:42.334Z,54.22
2018-03-30T16:49:42.270Z,54.13
2018-03-30T16:51:35.667Z,54.32
2018-03-30T16:52:35.474Z,54.03
2018-03-30T16:54:28.850Z,54.99
2018-03-30T16:55:28.675Z,55.08
2018-03-30T16:57:21.958Z,54.89
2018-03-30T16:58:21.874Z,54.60
2018-03-30T17:00:15.270Z,55.18
2018-03-30T17:01:15.079Z,55.46
2018-03-30T17:03:08.348Z,55.62
2018-03-30T17:04:08.280Z,55.55
2018-03-30T17:06:01.676Z,55.75
2018-03-30T17:07:01.484Z,55.94
2018-03-30T17:08:54.864Z,56.29
2018-03-30T17:09:54.687Z,56.10
2018-03-30T17:11:47.980Z,56.20
2018-03-30T17:12:47.899Z,56.38
2018-03-30T17:14:41.273Z,56.87
2018-03-30T17:15:41.101Z,57.15
2018-03-30T17:17:34.391Z,56.87
2018-03-30T17:18:34.305Z,57.24
2018-03-30T17:20:27.599Z,57.24
2018-03-30T17:21:27.514Z,57.06
2018-03-30T17:23:20.781Z,57.72
2018-03-30T17:24:20.720Z,57.63
2018-03-30T17:26:14.110Z,57.53
2018-03-30T17:27:13.917Z,57.34
2018-03-30T17:29:07.190Z,57.43
2018-03-30T17:30:07.117Z,57.63
2018-03-30T17:32:00.517Z,57.63
2018-03-30T17:33:00.325Z,57.53
2018-03-30T17:34:53.704Z,58.01
2018-03-30T17:35:53.532Z,58.01
2018-03-30T17:37:46.922Z,57.63
2018-03-30T17:38:46.731Z,57.82
2018-03-30T17:40:39.625Z,58.01
2018-03-30T17:41:39.473Z,58.20
2018-03-30T17:43:32.739Z,58.39
2018-03-30T17:44:32.677Z,58.29
2018-03-30T17:46:25.960Z,58.77
2018-03-30T17:47:25.876Z,58.20
2018-03-30T17:49:19.251Z,58.46
2018-03-30T17:50:19.126Z,59.06
2018-03-30T17:52:12.417Z,58.87
2018-03-30T17:53:12.335Z,58.94
2018-03-30T17:55:05.707Z,59.12
2018-03-30T17:56:05.532Z,59.03
2018-03-30T17:57:58.820Z,59.51
2018-03-30T17:58:58.735Z,59.60
2018-03-30T18:00:52.055Z,59.31
2018-03-30T18:01:51.938Z,59.41
2018-03-30T18:03:45.315Z,59.60
2018-03-30T18:04:45.138Z,59.51
2018-03-30T18:06:38.533Z,59.79
2018-03-30T18:07:38.330Z,59.41
2018-03-30T18:09:31.601Z,59.79
2018-03-30T18:10:31.534Z,59.70
2018-03-30T18:12:24.835Z,59.89
2018-03-30T18:13:24.737Z,59.89
2018-03-30T18:15:18.003Z,59.60
2018-03-30T18:16:17.940Z,59.79
2018-03-30T18:18:11.327Z,59.79
2018-03-30T18:19:11.134Z,60.08
2018-03-30T18:21:04.423Z,60.55
2018-03-30T18:22:04.340Z,60.46
2018-03-30T18:23:57.603Z,60.36
2018-03-30T18:24:57.540Z,60.36
2018-03-30T18:26:50.815Z,60.55
2018-03-30T18:27:50.729Z,60.75
2018-03-30T18:29:44.104Z,60.46
2018-03-30T18:30:43.932Z,60.55
2018-03-30T18:32:37.321Z,60.46
2018-03-30T18:33:37.131Z,60.55
2018-03-30T18:35:30.505Z,60.75